sensor_id;sensor_type;location;lat;lon;timestamp;temperature;humidity
2389;DHT22;1205;47.984;7.668;2023-07-30T00:01:12;20.70;99.90
2389;DHT22;1205;47.984;7.668;2023-07-30T00:03:37;20.70;99.90
2389;DHT22;1205;47.984;7.668;2023-07-30T00:06:03;20.70;99.90
2389;DHT22;1205;47.984;7.668;2023-07-30T00:08:29;20.70;99.90
2389;DHT22;1205;47.984;7.668;2023-07-30T00:10:56;20.70;99.90
2389;DHT22;1205;47.984;7.668;2023-07-30T00:13:23;20.80;99.90
2389;DHT22;1205;47.984;7.668;2023-07-30T00:15:49;20.70;99.90
2389;DHT22;1205;47.984;7.668;2023-07-30T00:18:15;20.70;99.90
2389;DHT22;1205;47.984;7.668;2023-07-30T00:20:40;20.70;99.90
2389;DHT22;1205;47.984;7.668;2023-07-30T00:23:06;20.80;99.90
2389;DHT22;1205;47.984;7.668;2023-07-30T00:25:31;20.70;99.90
2389;DHT22;1205;47.984;7.668;2023-07-30T00:27:57;20.80;99.90
2389;DHT22;1205;47.984;7.668;2023-07-30T00:30:23;20.70;99.90
2389;DHT22;1205;47.984;7.668;2023-07-30T00:32:48;20.80;99.90
2389;DHT22;1205;47.984;7.668;2023-07-30T00:35:14;20.80;99.90
2389;DHT22;1205;47.984;7.668;2023-07-30T00:37:39;20.70;99.90
2389;DHT22;1205;47.984;7.668;2023-07-30T00:40:06;20.70;99.90
2389;DHT22;1205;47.984;7.668;2023-07-30T00:42:31;20.70;99.90
2389;DHT22;1205;47.984;7.668;2023-07-30T00:44:57;20.70;99.90
2389;DHT22;1205;47.984;7.668;2023-07-30T00:47:22;20.70;99.90
2389;DHT22;1205;47.984;7.668;2023-07-30T00:49:49;20.60;99.90
2389;DHT22;1205;47.984;7.668;2023-07-30T00:52:19;20.60;99.90
2389;DHT22;1205;47.984;7.668;2023-07-30T00:54:47;20.50;99.90
2389;DHT22;1205;47.984;7.668;2023-07-30T00:57:15;20.50;99.90
2389;DHT22;1205;47.984;7.668;2023-07-30T00:59:42;20.50;99.90
2389;DHT22;1205;47.984;7.668;2023-07-30T01:02:08;20.40;99.90
2389;DHT22;1205;47.984;7.668;2023-07-30T01:04:34;20.30;99.90
2389;DHT22;1205;47.984;7.668;2023-07-30T01:07:03;20.30;99.90
2389;DHT22;1205;47.984;7.668;2023-07-30T01:09:28;20.30;99.90
2389;DHT22;1205;47.984;7.668;2023-07-30T01:11:55;20.30;99.90
2389;DHT22;1205;47.984;7.668;2023-07-30T01:14:21;20.20;99.90
2389;DHT22;1205;47.984;7.668;2023-07-30T01:16:48;20.10;99.90
2389;DHT22;1205;47.984;7.668;2023-07-30T01:19:14;20.10;99.90
2389;DHT22;1205;47.984;7.668;2023-07-30T01:21:40;20.10;99.90
2389;DHT22;1205;47.984;7.668;2023-07-30T01:24:05;20.00;99.90
2389;DHT22;1205;47.984;7.668;2023-07-30T01:26:46;20.10;99.90
2389;DHT22;1205;47.984;7.668;2023-07-30T01:29:30;20.10;99.90
2389;DHT22;1205;47.984;7.668;2023-07-30T01:32:02;20.20;99.90
2389;DHT22;1205;47.984;7.668;2023-07-30T01:34:30;20.20;99.90
2389;DHT22;1205;47.984;7.668;2023-07-30T01:36:58;20.20;99.90
2389;DHT22;1205;47.984;7.668;2023-07-30T01:39:24;20.10;99.90
2389;DHT22;1205;47.984;7.668;2023-07-30T01:41:56;20.10;99.90
2389;DHT22;1205;47.984;7.668;2023-07-30T01:44:22;20.10;99.90
2389;DHT22;1205;47.984;7.668;2023-07-30T01:46:47;20.00;99.90
2389;DHT22;1205;47.984;7.668;2023-07-30T01:49:13;19.90;99.90
2389;DHT22;1205;47.984;7.668;2023-07-30T01:51:38;19.90;99.90
2389;DHT22;1205;47.984;7.668;2023-07-30T01:54:04;19.90;99.90
2389;DHT22;1205;47.984;7.668;2023-07-30T01:56:30;19.90;99.90
2389;DHT22;1205;47.984;7.668;2023-07-30T01:58:55;19.80;99.90
2389;DHT22;1205;47.984;7.668;2023-07-30T02:01:21;19.80;99.90
2389;DHT22;1205;47.984;7.668;2023-07-30T02:03:46;19.70;99.90
2389;DHT22;1205;47.984;7.668;2023-07-30T02:06:12;19.70;99.90
2389;DHT22;1205;47.984;7.668;2023-07-30T02:08:38;19.70;99.90
2389;DHT22;1205;47.984;7.668;2023-07-30T02:11:03;19.60;99.90
2389;DHT22;1205;47.984;7.668;2023-07-30T02:16:51;19.60;99.90
2389;DHT22;1205;47.984;7.668;2023-07-30T02:19:16;19.50;99.90
2389;DHT22;1205;47.984;7.668;2023-07-30T02:21:42;19.50;99.90
2389;DHT22;1205;47.984;7.668;2023-07-30T02:24:09;19.50;99.90
2389;DHT22;1205;47.984;7.668;2023-07-30T02:26:35;19.50;99.90
2389;DHT22;1205;47.984;7.668;2023-07-30T02:29:01;19.40;99.90
2389;DHT22;1205;47.984;7.668;2023-07-30T02:31:27;19.50;99.90
2389;DHT22;1205;47.984;7.668;2023-07-30T02:33:52;19.50;99.90
2389;DHT22;1205;47.984;7.668;2023-07-30T02:36:18;19.40;99.90
2389;DHT22;1205;47.984;7.668;2023-07-30T02:38:43;19.50;99.90
2389;DHT22;1205;47.984;7.668;2023-07-30T02:41:09;19.50;99.90
2389;DHT22;1205;47.984;7.668;2023-07-30T02:43:36;19.50;99.90
2389;DHT22;1205;47.984;7.668;2023-07-30T02:46:01;19.50;99.90
2389;DHT22;1205;47.984;7.668;2023-07-30T02:48:27;19.50;99.90
2389;DHT22;1205;47.984;7.668;2023-07-30T02:50:53;19.50;99.90
2389;DHT22;1205;47.984;7.668;2023-07-30T02:53:18;19.50;99.90
2389;DHT22;1205;47.984;7.668;2023-07-30T02:55:44;19.50;99.90
2389;DHT22;1205;47.984;7.668;2023-07-30T02:58:09;19.50;99.90
2389;DHT22;1205;47.984;7.668;2023-07-30T03:00:35;19.50;99.90
2389;DHT22;1205;47.984;7.668;2023-07-30T03:03:01;19.50;99.90
2389;DHT22;1205;47.984;7.668;2023-07-30T03:05:27;19.50;99.90
2389;DHT22;1205;47.984;7.668;2023-07-30T03:07:52;19.50;99.90
2389;DHT22;1205;47.984;7.668;2023-07-30T03:10:18;19.60;99.90
2389;DHT22;1205;47.984;7.668;2023-07-30T03:12:44;19.50;99.90
2389;DHT22;1205;47.984;7.668;2023-07-30T03:15:10;19.60;99.90
2389;DHT22;1205;47.984;7.668;2023-07-30T03:17:35;19.50;99.90
2389;DHT22;1205;47.984;7.668;2023-07-30T03:20:02;19.50;99.90
2389;DHT22;1205;47.984;7.668;2023-07-30T03:22:27;19.30;99.90
2389;DHT22;1205;47.984;7.668;2023-07-30T03:24:53;19.30;99.90
2389;DHT22;1205;47.984;7.668;2023-07-30T03:27:18;19.40;99.90
2389;DHT22;1205;47.984;7.668;2023-07-30T03:29:44;19.30;99.90
2389;DHT22;1205;47.984;7.668;2023-07-30T03:32:09;19.30;99.90
2389;DHT22;1205;47.984;7.668;2023-07-30T03:34:35;19.20;99.90
2389;DHT22;1205;47.984;7.668;2023-07-30T03:37:01;19.20;99.90
2389;DHT22;1205;47.984;7.668;2023-07-30T03:39:26;19.20;99.90
2389;DHT22;1205;47.984;7.668;2023-07-30T03:41:52;19.20;99.90
2389;DHT22;1205;47.984;7.668;2023-07-30T03:44:17;19.30;99.90
2389;DHT22;1205;47.984;7.668;2023-07-30T03:46:43;19.20;99.90
2389;DHT22;1205;47.984;7.668;2023-07-30T03:49:09;19.10;99.90
2389;DHT22;1205;47.984;7.668;2023-07-30T03:51:35;19.20;99.90
2389;DHT22;1205;47.984;7.668;2023-07-30T03:54:01;19.20;99.90
2389;DHT22;1205;47.984;7.668;2023-07-30T03:56:26;19.10;99.90
2389;DHT22;1205;47.984;7.668;2023-07-30T03:58:52;19.20;99.90
2389;DHT22;1205;47.984;7.668;2023-07-30T04:01:17;19.30;99.90
2389;DHT22;1205;47.984;7.668;2023-07-30T04:03:43;19.20;99.90
2389;DHT22;1205;47.984;7.668;2023-07-30T04:06:08;19.20;99.90
2389;DHT22;1205;47.984;7.668;2023-07-30T04:08:34;19.20;99.90
2389;DHT22;1205;47.984;7.668;2023-07-30T04:11:00;19.30;99.90
2389;DHT22;1205;47.984;7.668;2023-07-30T04:13:25;19.30;99.90
2389;DHT22;1205;47.984;7.668;2023-07-30T04:15:51;19.40;99.90
2389;DHT22;1205;47.984;7.668;2023-07-30T04:18:16;19.30;99.90
2389;DHT22;1205;47.984;7.668;2023-07-30T04:20:42;19.30;99.90
2389;DHT22;1205;47.984;7.668;2023-07-30T04:23:07;19.40;99.90
2389;DHT22;1205;47.984;7.668;2023-07-30T04:25:33;19.50;99.90
2389;DHT22;1205;47.984;7.668;2023-07-30T04:27:59;19.50;99.90
2389;DHT22;1205;47.984;7.668;2023-07-30T04:30:24;19.50;99.90
2389;DHT22;1205;47.984;7.668;2023-07-30T04:32:50;19.60;99.90
2389;DHT22;1205;47.984;7.668;2023-07-30T04:35:15;19.70;99.90
2389;DHT22;1205;47.984;7.668;2023-07-30T04:37:41;19.80;99.90
2389;DHT22;1205;47.984;7.668;2023-07-30T04:40:07;19.80;99.90
2389;DHT22;1205;47.984;7.668;2023-07-30T04:42:34;19.80;99.90
2389;DHT22;1205;47.984;7.668;2023-07-30T04:44:59;19.80;99.90
2389;DHT22;1205;47.984;7.668;2023-07-30T04:47:25;19.90;99.90
2389;DHT22;1205;47.984;7.668;2023-07-30T04:49:51;20.00;99.90
2389;DHT22;1205;47.984;7.668;2023-07-30T04:52:16;20.10;99.90
2389;DHT22;1205;47.984;7.668;2023-07-30T04:54:42;20.10;99.90
2389;DHT22;1205;47.984;7.668;2023-07-30T04:57:08;20.20;99.90
2389;DHT22;1205;47.984;7.668;2023-07-30T04:59:33;20.30;99.90
2389;DHT22;1205;47.984;7.668;2023-07-30T05:02:00;20.30;99.90
2389;DHT22;1205;47.984;7.668;2023-07-30T05:04:25;20.50;99.90
2389;DHT22;1205;47.984;7.668;2023-07-30T05:06:51;20.60;99.90
2389;DHT22;1205;47.984;7.668;2023-07-30T05:09:17;20.90;99.90
2389;DHT22;1205;47.984;7.668;2023-07-30T05:11:42;21.10;99.90
2389;DHT22;1205;47.984;7.668;2023-07-30T05:14:08;21.10;99.90
2389;DHT22;1205;47.984;7.668;2023-07-30T05:16:33;21.10;99.90
2389;DHT22;1205;47.984;7.668;2023-07-30T05:18:59;21.10;99.90
2389;DHT22;1205;47.984;7.668;2023-07-30T05:21:25;21.10;99.90
2389;DHT22;1205;47.984;7.668;2023-07-30T05:23:50;21.20;99.90
2389;DHT22;1205;47.984;7.668;2023-07-30T05:26:16;21.20;99.90
2389;DHT22;1205;47.984;7.668;2023-07-30T05:28:42;21.20;99.90
2389;DHT22;1205;47.984;7.668;2023-07-30T05:31:07;21.40;99.90
2389;DHT22;1205;47.984;7.668;2023-07-30T05:33:33;21.60;99.90
2389;DHT22;1205;47.984;7.668;2023-07-30T05:36:01;21.80;99.90
2389;DHT22;1205;47.984;7.668;2023-07-30T05:38:27;21.70;99.90
2389;DHT22;1205;47.984;7.668;2023-07-30T05:40:52;21.70;99.90
2389;DHT22;1205;47.984;7.668;2023-07-30T05:43:18;21.80;99.90
2389;DHT22;1205;47.984;7.668;2023-07-30T05:45:44;22.00;99.90
2389;DHT22;1205;47.984;7.668;2023-07-30T05:48:09;22.30;99.90
2389;DHT22;1205;47.984;7.668;2023-07-30T05:50:35;22.80;99.90
2389;DHT22;1205;47.984;7.668;2023-07-30T05:53:01;23.00;99.90
2389;DHT22;1205;47.984;7.668;2023-07-30T05:55:26;23.20;99.90
2389;DHT22;1205;47.984;7.668;2023-07-30T05:57:52;23.10;99.90
2389;DHT22;1205;47.984;7.668;2023-07-30T06:00:20;23.20;99.90
2389;DHT22;1205;47.984;7.668;2023-07-30T06:02:46;23.20;99.90
2389;DHT22;1205;47.984;7.668;2023-07-30T06:05:11;23.30;99.90
2389;DHT22;1205;47.984;7.668;2023-07-30T06:07:37;23.60;99.90
2389;DHT22;1205;47.984;7.668;2023-07-30T06:10:03;23.80;99.90
2389;DHT22;1205;47.984;7.668;2023-07-30T06:12:28;23.40;99.90
2389;DHT22;1205;47.984;7.668;2023-07-30T06:14:54;23.50;99.90
2389;DHT22;1205;47.984;7.668;2023-07-30T06:17:20;23.80;99.90
2389;DHT22;1205;47.984;7.668;2023-07-30T06:19:45;24.10;99.90
2389;DHT22;1205;47.984;7.668;2023-07-30T06:22:11;24.20;99.90
2389;DHT22;1205;47.984;7.668;2023-07-30T06:24:36;24.20;99.90
2389;DHT22;1205;47.984;7.668;2023-07-30T06:27:02;24.20;99.90
2389;DHT22;1205;47.984;7.668;2023-07-30T06:29:27;24.60;99.90
2389;DHT22;1205;47.984;7.668;2023-07-30T06:31:53;24.70;99.90
2389;DHT22;1205;47.984;7.668;2023-07-30T06:34:18;24.60;99.90
2389;DHT22;1205;47.984;7.668;2023-07-30T06:36:44;25.50;99.90
2389;DHT22;1205;47.984;7.668;2023-07-30T06:39:09;25.10;99.90
2389;DHT22;1205;47.984;7.668;2023-07-30T06:41:35;24.90;99.90
2389;DHT22;1205;47.984;7.668;2023-07-30T06:44:00;24.60;99.90
2389;DHT22;1205;47.984;7.668;2023-07-30T06:46:26;24.30;99.90
2389;DHT22;1205;47.984;7.668;2023-07-30T06:48:52;24.30;99.90
2389;DHT22;1205;47.984;7.668;2023-07-30T06:51:24;24.80;99.90
2389;DHT22;1205;47.984;7.668;2023-07-30T06:53:50;25.30;99.90
2389;DHT22;1205;47.984;7.668;2023-07-30T06:56:15;25.70;99.90
2389;DHT22;1205;47.984;7.668;2023-07-30T06:58:41;26.20;99.90
2389;DHT22;1205;47.984;7.668;2023-07-30T07:01:06;26.40;99.90
2389;DHT22;1205;47.984;7.668;2023-07-30T07:03:32;26.70;99.90
2389;DHT22;1205;47.984;7.668;2023-07-30T07:05:58;27.20;99.90
2389;DHT22;1205;47.984;7.668;2023-07-30T07:08:23;27.40;99.90
2389;DHT22;1205;47.984;7.668;2023-07-30T07:10:49;26.80;99.90
2389;DHT22;1205;47.984;7.668;2023-07-30T07:13:15;27.00;99.90
2389;DHT22;1205;47.984;7.668;2023-07-30T07:15:41;26.80;99.90
2389;DHT22;1205;47.984;7.668;2023-07-30T07:18:07;26.80;99.90
2389;DHT22;1205;47.984;7.668;2023-07-30T07:20:33;26.80;99.90
2389;DHT22;1205;47.984;7.668;2023-07-30T07:22:59;26.10;99.90
2389;DHT22;1205;47.984;7.668;2023-07-30T07:25:24;26.10;99.90
2389;DHT22;1205;47.984;7.668;2023-07-30T07:27:50;26.20;99.90
2389;DHT22;1205;47.984;7.668;2023-07-30T07:30:15;25.80;99.90
2389;DHT22;1205;47.984;7.668;2023-07-30T07:32:41;25.80;99.90
2389;DHT22;1205;47.984;7.668;2023-07-30T07:35:07;25.80;99.90
2389;DHT22;1205;47.984;7.668;2023-07-30T07:37:33;26.00;99.90
2389;DHT22;1205;47.984;7.668;2023-07-30T07:39:59;26.30;99.90
2389;DHT22;1205;47.984;7.668;2023-07-30T07:42:24;26.30;99.90
2389;DHT22;1205;47.984;7.668;2023-07-30T07:44:50;26.40;99.90
2389;DHT22;1205;47.984;7.668;2023-07-30T07:47:15;25.70;99.90
2389;DHT22;1205;47.984;7.668;2023-07-30T07:49:41;26.00;99.90
2389;DHT22;1205;47.984;7.668;2023-07-30T07:52:07;25.60;99.90
2389;DHT22;1205;47.984;7.668;2023-07-30T07:54:34;25.80;99.90
2389;DHT22;1205;47.984;7.668;2023-07-30T07:56:59;25.10;99.90
2389;DHT22;1205;47.984;7.668;2023-07-30T07:59:25;25.30;99.90
2389;DHT22;1205;47.984;7.668;2023-07-30T08:01:51;25.40;99.90
2389;DHT22;1205;47.984;7.668;2023-07-30T08:04:16;25.70;99.90
2389;DHT22;1205;47.984;7.668;2023-07-30T08:06:42;25.30;99.80
2389;DHT22;1205;47.984;7.668;2023-07-30T08:09:08;25.00;99.90
2389;DHT22;1205;47.984;7.668;2023-07-30T08:11:34;24.90;99.90
2389;DHT22;1205;47.984;7.668;2023-07-30T08:13:59;24.90;99.90
2389;DHT22;1205;47.984;7.668;2023-07-30T08:16:25;24.80;99.90
2389;DHT22;1205;47.984;7.668;2023-07-30T08:18:50;24.70;99.60
2389;DHT22;1205;47.984;7.668;2023-07-30T08:21:16;24.80;99.90
2389;DHT22;1205;47.984;7.668;2023-07-30T08:23:43;25.00;99.30
2389;DHT22;1205;47.984;7.668;2023-07-30T08:26:09;24.50;99.90
2389;DHT22;1205;47.984;7.668;2023-07-30T08:28:34;24.30;99.90
2389;DHT22;1205;47.984;7.668;2023-07-30T08:31:00;24.30;99.90
2389;DHT22;1205;47.984;7.668;2023-07-30T08:33:29;24.50;99.60
2389;DHT22;1205;47.984;7.668;2023-07-30T08:35:58;24.50;99.90
2389;DHT22;1205;47.984;7.668;2023-07-30T08:38:24;24.90;99.70
2389;DHT22;1205;47.984;7.668;2023-07-30T08:40:50;25.10;99.50
2389;DHT22;1205;47.984;7.668;2023-07-30T08:43:16;25.20;99.30
2389;DHT22;1205;47.984;7.668;2023-07-30T08:45:41;25.10;99.20
2389;DHT22;1205;47.984;7.668;2023-07-30T08:48:07;25.20;99.50
2389;DHT22;1205;47.984;7.668;2023-07-30T08:50:33;25.20;99.00
2389;DHT22;1205;47.984;7.668;2023-07-30T08:53:01;24.80;99.00
2389;DHT22;1205;47.984;7.668;2023-07-30T08:55:28;24.60;96.70
2389;DHT22;1205;47.984;7.668;2023-07-30T08:57:56;25.00;97.30
2389;DHT22;1205;47.984;7.668;2023-07-30T09:00:24;24.60;95.20
2389;DHT22;1205;47.984;7.668;2023-07-30T09:02:56;24.50;96.10
2389;DHT22;1205;47.984;7.668;2023-07-30T09:05:21;24.60;95.60
2389;DHT22;1205;47.984;7.668;2023-07-30T09:07:48;24.30;93.50
2389;DHT22;1205;47.984;7.668;2023-07-30T09:10:14;24.20;93.80
2389;DHT22;1205;47.984;7.668;2023-07-30T09:12:40;24.30;94.20
2389;DHT22;1205;47.984;7.668;2023-07-30T09:15:07;24.10;93.90
2389;DHT22;1205;47.984;7.668;2023-07-30T09:17:33;24.20;94.00
2389;DHT22;1205;47.984;7.668;2023-07-30T09:20:00;24.40;94.10
2389;DHT22;1205;47.984;7.668;2023-07-30T09:22:31;24.20;93.60
2389;DHT22;1205;47.984;7.668;2023-07-30T09:25:02;24.20;94.10
2389;DHT22;1205;47.984;7.668;2023-07-30T09:27:28;24.10;93.60
2389;DHT22;1205;47.984;7.668;2023-07-30T09:29:56;24.40;94.30
2389;DHT22;1205;47.984;7.668;2023-07-30T09:32:29;24.50;93.20
2389;DHT22;1205;47.984;7.668;2023-07-30T09:34:55;24.60;93.50
2389;DHT22;1205;47.984;7.668;2023-07-30T09:37:21;24.10;93.00
2389;DHT22;1205;47.984;7.668;2023-07-30T09:39:48;24.30;94.30
2389;DHT22;1205;47.984;7.668;2023-07-30T09:42:13;24.50;93.50
2389;DHT22;1205;47.984;7.668;2023-07-30T09:44:39;24.70;93.80
2389;DHT22;1205;47.984;7.668;2023-07-30T09:47:09;24.80;94.00
2389;DHT22;1205;47.984;7.668;2023-07-30T09:49:39;24.60;94.30
2389;DHT22;1205;47.984;7.668;2023-07-30T09:52:05;24.80;94.70
2389;DHT22;1205;47.984;7.668;2023-07-30T09:54:33;24.90;94.50
2389;DHT22;1205;47.984;7.668;2023-07-30T09:56:59;24.70;94.40
2389;DHT22;1205;47.984;7.668;2023-07-30T09:59:24;24.80;93.80
2389;DHT22;1205;47.984;7.668;2023-07-30T10:01:50;24.70;94.60
2389;DHT22;1205;47.984;7.668;2023-07-30T10:04:21;24.90;95.20
2389;DHT22;1205;47.984;7.668;2023-07-30T10:07:08;24.70;93.60
2389;DHT22;1205;47.984;7.668;2023-07-30T10:09:42;24.80;94.20
2389;DHT22;1205;47.984;7.668;2023-07-30T10:12:23;24.70;94.10
2389;DHT22;1205;47.984;7.668;2023-07-30T10:14:50;25.00;94.00
2389;DHT22;1205;47.984;7.668;2023-07-30T10:17:17;25.30;94.80
2389;DHT22;1205;47.984;7.668;2023-07-30T10:19:47;25.00;94.40
2389;DHT22;1205;47.984;7.668;2023-07-30T10:24:40;25.60;95.70
2389;DHT22;1205;47.984;7.668;2023-07-30T10:27:09;25.50;93.20
2389;DHT22;1205;47.984;7.668;2023-07-30T10:29:40;25.80;93.30
2389;DHT22;1205;47.984;7.668;2023-07-30T10:32:07;26.00;93.80
2389;DHT22;1205;47.984;7.668;2023-07-30T10:34:46;25.40;91.70
2389;DHT22;1205;47.984;7.668;2023-07-30T10:37:17;25.60;93.10
2389;DHT22;1205;47.984;7.668;2023-07-30T10:39:44;25.70;94.30
2389;DHT22;1205;47.984;7.668;2023-07-30T10:42:13;25.60;92.40
2389;DHT22;1205;47.984;7.668;2023-07-30T10:44:43;25.40;93.00
2389;DHT22;1205;47.984;7.668;2023-07-30T10:47:09;25.40;92.50
2389;DHT22;1205;47.984;7.668;2023-07-30T10:49:38;25.50;93.30
2389;DHT22;1205;47.984;7.668;2023-07-30T10:52:06;25.90;94.20
2389;DHT22;1205;47.984;7.668;2023-07-30T10:54:34;25.90;93.20
2389;DHT22;1205;47.984;7.668;2023-07-30T10:57:00;25.90;92.80
2389;DHT22;1205;47.984;7.668;2023-07-30T10:59:26;25.80;93.40
2389;DHT22;1205;47.984;7.668;2023-07-30T11:01:52;25.30;92.60
2389;DHT22;1205;47.984;7.668;2023-07-30T11:04:19;24.70;92.80
2389;DHT22;1205;47.984;7.668;2023-07-30T11:06:49;24.30;92.90
2389;DHT22;1205;47.984;7.668;2023-07-30T11:09:26;24.30;92.60
2389;DHT22;1205;47.984;7.668;2023-07-30T11:11:54;24.70;93.40
2389;DHT22;1205;47.984;7.668;2023-07-30T11:14:24;24.70;92.30
2389;DHT22;1205;47.984;7.668;2023-07-30T11:16:57;24.80;92.80
2389;DHT22;1205;47.984;7.668;2023-07-30T11:19:27;25.10;91.90
2389;DHT22;1205;47.984;7.668;2023-07-30T11:21:54;25.40;92.00
2389;DHT22;1205;47.984;7.668;2023-07-30T11:24:21;24.80;91.10
2389;DHT22;1205;47.984;7.668;2023-07-30T11:26:59;24.80;91.50
2389;DHT22;1205;47.984;7.668;2023-07-30T11:29:25;25.20;92.20
2389;DHT22;1205;47.984;7.668;2023-07-30T11:31:51;25.20;91.90
2389;DHT22;1205;47.984;7.668;2023-07-30T11:34:17;24.70;91.90
2389;DHT22;1205;47.984;7.668;2023-07-30T11:36:44;24.60;92.20
2389;DHT22;1205;47.984;7.668;2023-07-30T11:39:10;24.50;92.80
2389;DHT22;1205;47.984;7.668;2023-07-30T11:41:36;24.70;92.50
2389;DHT22;1205;47.984;7.668;2023-07-30T11:44:03;24.70;92.80
2389;DHT22;1205;47.984;7.668;2023-07-30T11:46:29;24.70;92.90
2389;DHT22;1205;47.984;7.668;2023-07-30T11:49:12;24.70;92.40
2389;DHT22;1205;47.984;7.668;2023-07-30T11:51:48;24.90;92.30
2389;DHT22;1205;47.984;7.668;2023-07-30T11:54:23;25.20;92.10
2389;DHT22;1205;47.984;7.668;2023-07-30T11:56:57;25.20;91.40
2389;DHT22;1205;47.984;7.668;2023-07-30T11:59:22;25.20;91.00
2389;DHT22;1205;47.984;7.668;2023-07-30T12:01:48;25.50;91.20
2389;DHT22;1205;47.984;7.668;2023-07-30T12:04:14;25.40;90.40
2389;DHT22;1205;47.984;7.668;2023-07-30T12:06:44;25.30;91.10
2389;DHT22;1205;47.984;7.668;2023-07-30T12:09:18;25.20;90.90
2389;DHT22;1205;47.984;7.668;2023-07-30T12:11:55;25.50;92.00
2389;DHT22;1205;47.984;7.668;2023-07-30T12:17:12;25.90;91.20
2389;DHT22;1205;47.984;7.668;2023-07-30T12:19:37;26.10;90.90
2389;DHT22;1205;47.984;7.668;2023-07-30T12:22:03;25.90;90.30
2389;DHT22;1205;47.984;7.668;2023-07-30T12:24:29;25.60;91.00
2389;DHT22;1205;47.984;7.668;2023-07-30T12:26:54;25.40;91.20
2389;DHT22;1205;47.984;7.668;2023-07-30T12:29:20;25.70;91.50
2389;DHT22;1205;47.984;7.668;2023-07-30T12:31:46;25.60;91.00
2389;DHT22;1205;47.984;7.668;2023-07-30T12:34:12;25.70;92.20
2389;DHT22;1205;47.984;7.668;2023-07-30T12:36:38;25.80;91.20
2389;DHT22;1205;47.984;7.668;2023-07-30T12:39:04;25.20;91.20
2389;DHT22;1205;47.984;7.668;2023-07-30T12:41:29;25.40;91.60
2389;DHT22;1205;47.984;7.668;2023-07-30T12:43:56;25.40;91.50
2389;DHT22;1205;47.984;7.668;2023-07-30T12:46:22;25.70;91.40
2389;DHT22;1205;47.984;7.668;2023-07-30T12:48:48;25.80;91.40
2389;DHT22;1205;47.984;7.668;2023-07-30T12:51:14;25.80;90.60
2389;DHT22;1205;47.984;7.668;2023-07-30T12:53:40;25.90;91.20
2389;DHT22;1205;47.984;7.668;2023-07-30T12:56:05;26.20;90.30
2389;DHT22;1205;47.984;7.668;2023-07-30T12:58:31;26.20;91.10
2389;DHT22;1205;47.984;7.668;2023-07-30T13:00:57;26.10;91.30
2389;DHT22;1205;47.984;7.668;2023-07-30T13:03:22;26.00;91.30
2389;DHT22;1205;47.984;7.668;2023-07-30T13:05:48;26.00;91.40
2389;DHT22;1205;47.984;7.668;2023-07-30T13:08:13;26.30;91.90
2389;DHT22;1205;47.984;7.668;2023-07-30T13:10:39;26.20;90.90
2389;DHT22;1205;47.984;7.668;2023-07-30T13:13:05;26.20;91.00
2389;DHT22;1205;47.984;7.668;2023-07-30T13:15:30;26.10;90.90
2389;DHT22;1205;47.984;7.668;2023-07-30T13:17:56;26.00;91.30
2389;DHT22;1205;47.984;7.668;2023-07-30T13:20:21;26.00;90.70
2389;DHT22;1205;47.984;7.668;2023-07-30T13:22:50;25.80;90.30
2389;DHT22;1205;47.984;7.668;2023-07-30T13:25:16;25.70;90.50
2389;DHT22;1205;47.984;7.668;2023-07-30T13:27:42;25.60;90.80
2389;DHT22;1205;47.984;7.668;2023-07-30T13:30:07;25.80;91.50
2389;DHT22;1205;47.984;7.668;2023-07-30T13:32:33;26.00;91.50
2389;DHT22;1205;47.984;7.668;2023-07-30T13:34:59;25.90;90.50
2389;DHT22;1205;47.984;7.668;2023-07-30T13:37:24;25.70;90.40
2389;DHT22;1205;47.984;7.668;2023-07-30T13:39:50;25.40;91.10
2389;DHT22;1205;47.984;7.668;2023-07-30T13:42:16;25.80;92.00
2389;DHT22;1205;47.984;7.668;2023-07-30T13:44:41;25.90;91.30
2389;DHT22;1205;47.984;7.668;2023-07-30T13:47:07;25.50;91.50
2389;DHT22;1205;47.984;7.668;2023-07-30T13:49:33;25.30;90.70
2389;DHT22;1205;47.984;7.668;2023-07-30T13:51:58;25.50;90.30
2389;DHT22;1205;47.984;7.668;2023-07-30T13:54:24;25.60;90.20
2389;DHT22;1205;47.984;7.668;2023-07-30T13:56:50;25.60;89.80
2389;DHT22;1205;47.984;7.668;2023-07-30T13:59:15;25.80;89.10
2389;DHT22;1205;47.984;7.668;2023-07-30T14:01:41;25.90;90.00
2389;DHT22;1205;47.984;7.668;2023-07-30T14:04:06;26.10;88.40
2389;DHT22;1205;47.984;7.668;2023-07-30T14:06:32;26.10;86.20
2389;DHT22;1205;47.984;7.668;2023-07-30T14:08:57;26.10;87.00
2389;DHT22;1205;47.984;7.668;2023-07-30T14:11:26;26.10;85.10
2389;DHT22;1205;47.984;7.668;2023-07-30T14:13:51;25.60;83.50
2389;DHT22;1205;47.984;7.668;2023-07-30T14:16:17;25.40;84.50
2389;DHT22;1205;47.984;7.668;2023-07-30T14:18:42;25.50;84.00
2389;DHT22;1205;47.984;7.668;2023-07-30T14:21:08;25.70;84.00
2389;DHT22;1205;47.984;7.668;2023-07-30T14:23:34;25.90;82.70
2389;DHT22;1205;47.984;7.668;2023-07-30T14:25:59;25.90;82.60
2389;DHT22;1205;47.984;7.668;2023-07-30T14:28:25;25.80;81.70
2389;DHT22;1205;47.984;7.668;2023-07-30T14:30:50;25.50;81.10
2389;DHT22;1205;47.984;7.668;2023-07-30T14:33:16;25.50;82.40
2389;DHT22;1205;47.984;7.668;2023-07-30T14:35:41;25.30;84.20
2389;DHT22;1205;47.984;7.668;2023-07-30T14:38:07;25.40;85.70
2389;DHT22;1205;47.984;7.668;2023-07-30T14:40:33;25.60;84.60
2389;DHT22;1205;47.984;7.668;2023-07-30T14:42:58;25.90;85.50
2389;DHT22;1205;47.984;7.668;2023-07-30T14:45:25;26.10;83.00
2389;DHT22;1205;47.984;7.668;2023-07-30T14:47:50;26.20;82.10
2389;DHT22;1205;47.984;7.668;2023-07-30T14:50:16;26.20;81.10
2389;DHT22;1205;47.984;7.668;2023-07-30T14:52:41;25.90;82.80
2389;DHT22;1205;47.984;7.668;2023-07-30T14:55:07;26.20;83.30
2389;DHT22;1205;47.984;7.668;2023-07-30T14:57:33;26.20;81.50
2389;DHT22;1205;47.984;7.668;2023-07-30T14:59:59;26.20;82.40
2389;DHT22;1205;47.984;7.668;2023-07-30T15:02:29;26.20;82.20
2389;DHT22;1205;47.984;7.668;2023-07-30T15:04:54;26.20;81.40
2389;DHT22;1205;47.984;7.668;2023-07-30T15:07:20;26.20;77.80
2389;DHT22;1205;47.984;7.668;2023-07-30T15:09:51;25.90;77.90
2389;DHT22;1205;47.984;7.668;2023-07-30T15:12:16;25.90;79.10
2389;DHT22;1205;47.984;7.668;2023-07-30T15:14:42;25.50;79.20
2389;DHT22;1205;47.984;7.668;2023-07-30T15:17:08;25.70;81.10
2389;DHT22;1205;47.984;7.668;2023-07-30T15:19:33;25.80;81.60
2389;DHT22;1205;47.984;7.668;2023-07-30T15:21:59;25.90;79.90
2389;DHT22;1205;47.984;7.668;2023-07-30T15:24:25;26.10;81.60
2389;DHT22;1205;47.984;7.668;2023-07-30T15:26:50;26.20;81.40
2389;DHT22;1205;47.984;7.668;2023-07-30T15:29:16;26.10;80.80
2389;DHT22;1205;47.984;7.668;2023-07-30T15:31:41;26.10;80.30
2389;DHT22;1205;47.984;7.668;2023-07-30T15:34:07;26.00;80.80
2389;DHT22;1205;47.984;7.668;2023-07-30T15:36:32;25.90;81.70
2389;DHT22;1205;47.984;7.668;2023-07-30T15:38:58;25.90;81.40
2389;DHT22;1205;47.984;7.668;2023-07-30T15:41:24;25.90;82.20
2389;DHT22;1205;47.984;7.668;2023-07-30T15:43:49;25.90;81.90
2389;DHT22;1205;47.984;7.668;2023-07-30T15:46:16;25.90;82.90
2389;DHT22;1205;47.984;7.668;2023-07-30T15:48:46;25.80;82.70
2389;DHT22;1205;47.984;7.668;2023-07-30T15:51:11;25.80;83.20
2389;DHT22;1205;47.984;7.668;2023-07-30T15:53:37;25.90;83.70
2389;DHT22;1205;47.984;7.668;2023-07-30T15:56:03;25.90;83.80
2389;DHT22;1205;47.984;7.668;2023-07-30T15:58:29;26.00;82.60
2389;DHT22;1205;47.984;7.668;2023-07-30T16:00:55;25.90;82.70
2389;DHT22;1205;47.984;7.668;2023-07-30T16:03:20;26.00;83.10
2389;DHT22;1205;47.984;7.668;2023-07-30T16:05:47;25.90;84.10